Orbital elements of FENGYUN 1C DEB
| Launched | 9 May 1999 |
| Flight ended | – |
| Launch site | Taiyuan Space Center, PRC |
| Owner | People's Republic of China |
| NORAD ID | 30526 |
| Date fetched |
Epoch osculation |
Inc. [°] |
Ecc. | RA asc node [hr] |
Arg Peri. [°] |
Mean anom [°] |
Mean motion [rev/day] |
Abs. mag |
| Date fetched |
Epoch osculation |
Inc. [°] |
Ecc. | RA asc node [hr] |
Arg Peri. [°] |
Mean anom [°] |
Mean motion [rev/day] |
Abs. mag |
| 2026 May 03 17:57 | 2026 Apr 30 11:39:59 | 99.5349 | 0.03034 | 13.4744 | 277.1911 | 79.4828 | 13.50081 | – |
| 2026 May 02 17:57 | 2026 Apr 30 11:39:59 | 99.5349 | 0.03034 | 13.4744 | 277.1911 | 79.4828 | 13.50081 | – |
| 2026 May 01 17:56 | 2026 Apr 30 11:39:59 | 99.5349 | 0.03034 | 13.4744 | 277.1911 | 79.4828 | 13.50081 | – |
| 2026 Apr 30 17:56 | 2026 Apr 30 11:39:59 | 99.5349 | 0.03034 | 13.4744 | 277.1911 | 79.4828 | 13.50081 | – |
| 2026 Apr 29 17:57 | 2026 Apr 24 04:29:14 | 99.5351 | 0.03028 | 13.0716 | 293.0609 | 79.4828 | 13.50081 | – |
| 2026 Apr 28 17:56 | 2026 Apr 24 04:29:14 | 99.5351 | 0.03028 | 13.0716 | 293.0609 | 79.4828 | 13.50081 | – |
| 2026 Apr 27 17:58 | 2026 Apr 24 04:29:14 | 99.5351 | 0.03028 | 13.0716 | 293.0609 | 79.4828 | 13.50081 | – |
| 2026 Apr 26 17:58 | 2026 Apr 24 04:29:14 | 99.5351 | 0.03028 | 13.0716 | 293.0609 | 79.4828 | 13.50081 | – |
| 2026 Apr 25 17:58 | 2026 Apr 24 04:29:14 | 99.5351 | 0.03028 | 13.0716 | 293.0609 | 79.4828 | 13.50081 | – |
| 2026 Apr 24 17:59 | 2026 Apr 24 04:29:14 | 99.5351 | 0.03028 | 13.0716 | 293.0609 | 79.4828 | 13.50081 | – |
| 2026 Apr 23 17:57 | 2026 Apr 18 22:12:27 | 99.5349 | 0.03024 | 12.7352 | 306.3416 | 79.4828 | 13.50081 | – |
| 2026 Apr 22 17:57 | 2026 Apr 18 22:12:27 | 99.5349 | 0.03024 | 12.7352 | 306.3416 | 79.4828 | 13.50081 | – |
| 2026 Apr 21 17:57 | 2026 Apr 18 22:12:27 | 99.5349 | 0.03024 | 12.7352 | 306.3416 | 79.4828 | 13.50081 | – |
| 2026 Apr 20 17:57 | 2026 Apr 18 22:12:27 | 99.5349 | 0.03024 | 12.7352 | 306.3416 | 79.4828 | 13.50081 | – |
| 2026 Apr 19 17:58 | 2026 Apr 18 22:12:27 | 99.5349 | 0.03024 | 12.7352 | 306.3416 | 79.4828 | 13.50081 | – |
| 2026 Apr 18 17:56 | 2026 Apr 13 03:28:40 | 99.5350 | 0.03022 | 12.3656 | 320.9416 | 79.4828 | 13.50081 | – |
| 2026 Apr 16 17:57 | 2026 Apr 13 03:28:40 | 99.5350 | 0.03022 | 12.3656 | 320.9416 | 79.4828 | 13.50081 | – |
| 2026 Apr 14 17:57 | 2026 Apr 13 03:28:40 | 99.5350 | 0.03022 | 12.3656 | 320.9416 | 79.4828 | 13.50081 | – |
| 2026 Apr 13 17:57 | 2026 Apr 13 03:28:40 | 99.5350 | 0.03022 | 12.3656 | 320.9416 | 79.4828 | 13.50081 | – |
| 2026 Apr 12 17:57 | 2026 Apr 07 22:58:35 | 99.5350 | 0.03021 | 12.0339 | 334.0544 | 79.4828 | 13.50081 | – |
| 2026 Apr 11 17:57 | 2026 Apr 07 22:58:35 | 99.5350 | 0.03021 | 12.0339 | 334.0544 | 79.4828 | 13.50081 | – |
| 2026 Apr 10 17:58 | 2026 Apr 07 22:58:35 | 99.5350 | 0.03021 | 12.0339 | 334.0544 | 79.4828 | 13.50081 | – |
| 2026 Apr 09 18:01 | 2026 Apr 07 22:58:35 | 99.5350 | 0.03021 | 12.0339 | 334.0544 | 79.4828 | 13.50081 | – |
| 2026 Apr 08 17:57 | 2026 Apr 07 22:58:35 | 99.5350 | 0.03021 | 12.0339 | 334.0544 | 79.4828 | 13.50081 | – |
| 2026 Apr 07 17:57 | 2026 Apr 02 04:14:47 | 99.5351 | 0.03022 | 11.6643 | 348.6622 | 79.4828 | 13.50081 | – |
| 2026 Apr 06 17:57 | 2026 Apr 02 04:14:47 | 99.5351 | 0.03022 | 11.6643 | 348.6622 | 79.4828 | 13.50081 | – |